sensor_id;sensor_type;location;lat;lon;timestamp;temperature;humidity
11965;DHT22;6042;41.326;19.826;2022-09-09T00:01:27;23.30;99.90
11965;DHT22;6042;41.326;19.826;2022-09-09T00:04:03;23.20;99.90
11965;DHT22;6042;41.326;19.826;2022-09-09T00:06:42;23.30;99.90
11965;DHT22;6042;41.326;19.826;2022-09-09T00:09:14;23.30;99.90
11965;DHT22;6042;41.326;19.826;2022-09-09T00:11:47;23.30;99.90
11965;DHT22;6042;41.326;19.826;2022-09-09T00:14:23;23.30;99.90
11965;DHT22;6042;41.326;19.826;2022-09-09T00:16:56;23.40;99.90
11965;DHT22;6042;41.326;19.826;2022-09-09T00:19:31;23.40;99.90
11965;DHT22;6042;41.326;19.826;2022-09-09T00:22:13;23.40;99.90
11965;DHT22;6042;41.326;19.826;2022-09-09T00:24:45;23.40;99.90
11965;DHT22;6042;41.326;19.826;2022-09-09T00:27:21;23.40;99.90
11965;DHT22;6042;41.326;19.826;2022-09-09T00:30:12;23.40;99.90
11965;DHT22;6042;41.326;19.826;2022-09-09T00:32:41;23.40;99.90
11965;DHT22;6042;41.326;19.826;2022-09-09T00:35:17;23.30;99.90
11965;DHT22;6042;41.326;19.826;2022-09-09T00:37:50;23.20;99.90
11965;DHT22;6042;41.326;19.826;2022-09-09T00:40:24;23.30;99.90
11965;DHT22;6042;41.326;19.826;2022-09-09T00:43:07;23.30;99.90
11965;DHT22;6042;41.326;19.826;2022-09-09T00:48:43;23.20;99.90
11965;DHT22;6042;41.326;19.826;2022-09-09T00:51:17;23.10;99.90
11965;DHT22;6042;41.326;19.826;2022-09-09T00:54:10;23.10;99.90
11965;DHT22;6042;41.326;19.826;2022-09-09T00:56:45;23.10;99.90
11965;DHT22;6042;41.326;19.826;2022-09-09T00:59:24;23.10;99.90
11965;DHT22;6042;41.326;19.826;2022-09-09T01:01:55;23.10;99.90
11965;DHT22;6042;41.326;19.826;2022-09-09T01:04:34;23.10;99.90
11965;DHT22;6042;41.326;19.826;2022-09-09T01:07:13;23.00;99.90
11965;DHT22;6042;41.326;19.826;2022-09-09T01:09:52;23.10;99.90
11965;DHT22;6042;41.326;19.826;2022-09-09T01:12:31;23.10;99.90
11965;DHT22;6042;41.326;19.826;2022-09-09T01:15:08;23.10;99.90
11965;DHT22;6042;41.326;19.826;2022-09-09T01:17:54;23.10;99.90
11965;DHT22;6042;41.326;19.826;2022-09-09T01:20:28;23.00;99.90
11965;DHT22;6042;41.326;19.826;2022-09-09T01:23:15;23.00;99.90
11965;DHT22;6042;41.326;19.826;2022-09-09T01:26:23;22.90;99.90
11965;DHT22;6042;41.326;19.826;2022-09-09T01:28:55;22.90;99.90
11965;DHT22;6042;41.326;19.826;2022-09-09T01:31:33;22.90;99.90
11965;DHT22;6042;41.326;19.826;2022-09-09T01:34:09;22.90;99.90
11965;DHT22;6042;41.326;19.826;2022-09-09T01:36:43;23.00;99.90
11965;DHT22;6042;41.326;19.826;2022-09-09T01:39:13;23.00;99.90
11965;DHT22;6042;41.326;19.826;2022-09-09T01:41:44;23.00;99.90
11965;DHT22;6042;41.326;19.826;2022-09-09T01:44:17;23.00;99.90
11965;DHT22;6042;41.326;19.826;2022-09-09T01:46:47;22.90;99.90
11965;DHT22;6042;41.326;19.826;2022-09-09T01:49:18;22.90;99.90
11965;DHT22;6042;41.326;19.826;2022-09-09T01:51:50;22.90;99.90
11965;DHT22;6042;41.326;19.826;2022-09-09T01:54:29;22.90;99.90
11965;DHT22;6042;41.326;19.826;2022-09-09T01:57:11;22.80;99.90
11965;DHT22;6042;41.326;19.826;2022-09-09T01:59:51;22.80;99.90
11965;DHT22;6042;41.326;19.826;2022-09-09T02:02:26;22.70;99.90
11965;DHT22;6042;41.326;19.826;2022-09-09T02:05:22;22.70;99.90
11965;DHT22;6042;41.326;19.826;2022-09-09T02:07:59;22.70;99.90
11965;DHT22;6042;41.326;19.826;2022-09-09T02:10:45;22.60;99.90
11965;DHT22;6042;41.326;19.826;2022-09-09T02:13:29;22.70;99.90
11965;DHT22;6042;41.326;19.826;2022-09-09T02:16:03;22.60;99.90
11965;DHT22;6042;41.326;19.826;2022-09-09T02:18:35;22.50;99.90
11965;DHT22;6042;41.326;19.826;2022-09-09T02:21:08;22.60;99.90
11965;DHT22;6042;41.326;19.826;2022-09-09T02:23:39;22.60;99.90
11965;DHT22;6042;41.326;19.826;2022-09-09T02:26:13;22.60;99.90
11965;DHT22;6042;41.326;19.826;2022-09-09T02:28:55;22.50;99.90
11965;DHT22;6042;41.326;19.826;2022-09-09T02:31:26;22.50;99.90
11965;DHT22;6042;41.326;19.826;2022-09-09T02:34:02;22.60;99.90
11965;DHT22;6042;41.326;19.826;2022-09-09T02:36:34;22.60;99.90
11965;DHT22;6042;41.326;19.826;2022-09-09T02:39:07;22.60;99.90
11965;DHT22;6042;41.326;19.826;2022-09-09T02:41:38;22.70;99.90
11965;DHT22;6042;41.326;19.826;2022-09-09T02:44:12;22.70;99.90
11965;DHT22;6042;41.326;19.826;2022-09-09T02:46:59;22.70;99.90
11965;DHT22;6042;41.326;19.826;2022-09-09T02:49:39;22.80;99.90
11965;DHT22;6042;41.326;19.826;2022-09-09T02:52:14;22.80;99.90
11965;DHT22;6042;41.326;19.826;2022-09-09T02:54:43;22.80;99.90
11965;DHT22;6042;41.326;19.826;2022-09-09T02:57:17;22.80;99.90
11965;DHT22;6042;41.326;19.826;2022-09-09T02:59:50;22.80;99.90
11965;DHT22;6042;41.326;19.826;2022-09-09T03:02:20;22.70;99.90
11965;DHT22;6042;41.326;19.826;2022-09-09T03:04:53;22.80;99.90
11965;DHT22;6042;41.326;19.826;2022-09-09T03:07:22;22.70;99.90
11965;DHT22;6042;41.326;19.826;2022-09-09T03:09:52;22.70;99.90
11965;DHT22;6042;41.326;19.826;2022-09-09T03:12:25;22.80;99.90
11965;DHT22;6042;41.326;19.826;2022-09-09T03:14:56;22.90;99.90
11965;DHT22;6042;41.326;19.826;2022-09-09T03:17:24;22.90;99.90
11965;DHT22;6042;41.326;19.826;2022-09-09T03:19:56;22.90;99.90
11965;DHT22;6042;41.326;19.826;2022-09-09T03:22:26;22.90;99.90
11965;DHT22;6042;41.326;19.826;2022-09-09T03:24:57;22.90;99.90
11965;DHT22;6042;41.326;19.826;2022-09-09T03:27:27;22.80;99.90
11965;DHT22;6042;41.326;19.826;2022-09-09T03:29:58;22.70;99.90
11965;DHT22;6042;41.326;19.826;2022-09-09T03:32:28;22.70;99.90
11965;DHT22;6042;41.326;19.826;2022-09-09T03:34:58;22.60;99.90
11965;DHT22;6042;41.326;19.826;2022-09-09T03:37:26;22.60;99.90
11965;DHT22;6042;41.326;19.826;2022-09-09T03:39:55;22.50;99.90
11965;DHT22;6042;41.326;19.826;2022-09-09T03:42:24;22.50;99.90
11965;DHT22;6042;41.326;19.826;2022-09-09T03:44:54;22.50;99.90
11965;DHT22;6042;41.326;19.826;2022-09-09T03:47:27;22.40;99.90
11965;DHT22;6042;41.326;19.826;2022-09-09T03:50:04;22.50;99.90
11965;DHT22;6042;41.326;19.826;2022-09-09T03:52:37;22.50;99.90
11965;DHT22;6042;41.326;19.826;2022-09-09T03:55:08;22.60;99.90
11965;DHT22;6042;41.326;19.826;2022-09-09T03:57:37;22.60;99.90
11965;DHT22;6042;41.326;19.826;2022-09-09T04:00:09;22.60;99.90
11965;DHT22;6042;41.326;19.826;2022-09-09T04:02:50;22.60;99.90
11965;DHT22;6042;41.326;19.826;2022-09-09T04:05:21;22.60;99.90
11965;DHT22;6042;41.326;19.826;2022-09-09T04:07:50;22.60;99.90
11965;DHT22;6042;41.326;19.826;2022-09-09T04:10:21;22.60;99.90
11965;DHT22;6042;41.326;19.826;2022-09-09T04:12:53;22.60;99.90
11965;DHT22;6042;41.326;19.826;2022-09-09T04:15:23;22.60;99.90
11965;DHT22;6042;41.326;19.826;2022-09-09T04:17:52;22.60;99.90
11965;DHT22;6042;41.326;19.826;2022-09-09T04:20:21;22.60;99.90
11965;DHT22;6042;41.326;19.826;2022-09-09T04:22:50;22.70;99.90
11965;DHT22;6042;41.326;19.826;2022-09-09T04:25:20;22.70;99.90
11965;DHT22;6042;41.326;19.826;2022-09-09T04:27:53;22.70;99.90
11965;DHT22;6042;41.326;19.826;2022-09-09T04:30:22;22.70;99.90
11965;DHT22;6042;41.326;19.826;2022-09-09T04:32:52;22.70;99.90
11965;DHT22;6042;41.326;19.826;2022-09-09T04:35:21;22.60;99.90
11965;DHT22;6042;41.326;19.826;2022-09-09T04:37:50;22.70;99.90
11965;DHT22;6042;41.326;19.826;2022-09-09T04:40:18;22.70;99.90
11965;DHT22;6042;41.326;19.826;2022-09-09T04:42:50;22.70;99.90
11965;DHT22;6042;41.326;19.826;2022-09-09T04:45:19;22.60;99.90
11965;DHT22;6042;41.326;19.826;2022-09-09T04:47:48;22.70;99.90
11965;DHT22;6042;41.326;19.826;2022-09-09T04:50:18;22.70;99.90
11965;DHT22;6042;41.326;19.826;2022-09-09T04:52:47;22.80;99.90
11965;DHT22;6042;41.326;19.826;2022-09-09T04:55:15;22.90;99.90
11965;DHT22;6042;41.326;19.826;2022-09-09T04:57:45;22.90;99.90
11965;DHT22;6042;41.326;19.826;2022-09-09T05:00:15;23.00;99.90
11965;DHT22;6042;41.326;19.826;2022-09-09T05:02:44;23.10;99.90
11965;DHT22;6042;41.326;19.826;2022-09-09T05:05:13;23.20;99.90
11965;DHT22;6042;41.326;19.826;2022-09-09T05:07:43;23.20;99.90
11965;DHT22;6042;41.326;19.826;2022-09-09T05:10:13;23.20;99.90
11965;DHT22;6042;41.326;19.826;2022-09-09T05:12:42;23.20;99.90
11965;DHT22;6042;41.326;19.826;2022-09-09T05:15:13;23.40;99.90
11965;DHT22;6042;41.326;19.826;2022-09-09T05:17:43;23.40;99.90
11965;DHT22;6042;41.326;19.826;2022-09-09T05:20:14;23.50;99.90
11965;DHT22;6042;41.326;19.826;2022-09-09T05:22:45;23.60;99.90
11965;DHT22;6042;41.326;19.826;2022-09-09T05:25:15;23.70;99.90
11965;DHT22;6042;41.326;19.826;2022-09-09T05:27:44;23.80;99.90
11965;DHT22;6042;41.326;19.826;2022-09-09T05:30:13;23.90;99.90
11965;DHT22;6042;41.326;19.826;2022-09-09T05:32:42;24.00;99.90
11965;DHT22;6042;41.326;19.826;2022-09-09T05:35:12;24.00;99.90
11965;DHT22;6042;41.326;19.826;2022-09-09T05:37:41;24.00;99.90
11965;DHT22;6042;41.326;19.826;2022-09-09T05:40:12;24.20;99.90
11965;DHT22;6042;41.326;19.826;2022-09-09T05:42:41;24.30;99.90
11965;DHT22;6042;41.326;19.826;2022-09-09T05:45:10;24.30;99.90
11965;DHT22;6042;41.326;19.826;2022-09-09T05:47:38;24.40;99.90
11965;DHT22;6042;41.326;19.826;2022-09-09T05:50:10;24.40;99.90
11965;DHT22;6042;41.326;19.826;2022-09-09T05:52:42;24.40;99.90
11965;DHT22;6042;41.326;19.826;2022-09-09T05:55:13;24.40;99.90
11965;DHT22;6042;41.326;19.826;2022-09-09T05:57:42;24.60;99.90
11965;DHT22;6042;41.326;19.826;2022-09-09T06:00:17;24.60;99.90
11965;DHT22;6042;41.326;19.826;2022-09-09T06:02:51;24.70;99.90
11965;DHT22;6042;41.326;19.826;2022-09-09T06:05:22;24.70;99.90
11965;DHT22;6042;41.326;19.826;2022-09-09T06:07:54;24.90;99.90
11965;DHT22;6042;41.326;19.826;2022-09-09T06:10:25;24.90;99.90
11965;DHT22;6042;41.326;19.826;2022-09-09T06:12:54;24.90;99.90
11965;DHT22;6042;41.326;19.826;2022-09-09T06:15:22;24.90;99.90
11965;DHT22;6042;41.326;19.826;2022-09-09T06:17:54;25.00;99.90
11965;DHT22;6042;41.326;19.826;2022-09-09T06:20:24;25.10;99.90
11965;DHT22;6042;41.326;19.826;2022-09-09T06:22:52;25.20;99.90
11965;DHT22;6042;41.326;19.826;2022-09-09T06:25:21;25.30;99.90
11965;DHT22;6042;41.326;19.826;2022-09-09T06:27:51;25.40;99.90
11965;DHT22;6042;41.326;19.826;2022-09-09T06:30:19;25.50;99.90
11965;DHT22;6042;41.326;19.826;2022-09-09T06:32:48;25.60;99.90
11965;DHT22;6042;41.326;19.826;2022-09-09T06:35:17;25.60;99.90
11965;DHT22;6042;41.326;19.826;2022-09-09T06:37:46;25.70;99.90
11965;DHT22;6042;41.326;19.826;2022-09-09T06:40:18;25.90;99.90
11965;DHT22;6042;41.326;19.826;2022-09-09T06:42:46;26.00;99.90
11965;DHT22;6042;41.326;19.826;2022-09-09T06:45:39;26.00;99.90
11965;DHT22;6042;41.326;19.826;2022-09-09T06:48:08;26.10;99.90
11965;DHT22;6042;41.326;19.826;2022-09-09T06:50:36;26.20;99.90
11965;DHT22;6042;41.326;19.826;2022-09-09T06:53:06;26.30;99.90
11965;DHT22;6042;41.326;19.826;2022-09-09T06:55:34;26.50;99.90
11965;DHT22;6042;41.326;19.826;2022-09-09T06:58:08;26.60;99.90
11965;DHT22;6042;41.326;19.826;2022-09-09T07:00:38;26.60;99.90
11965;DHT22;6042;41.326;19.826;2022-09-09T07:03:07;26.70;99.90
11965;DHT22;6042;41.326;19.826;2022-09-09T07:05:36;26.70;99.90
11965;DHT22;6042;41.326;19.826;2022-09-09T07:08:04;26.80;99.90
11965;DHT22;6042;41.326;19.826;2022-09-09T07:10:33;27.00;99.90
11965;DHT22;6042;41.326;19.826;2022-09-09T07:13:02;27.00;99.90
11965;DHT22;6042;41.326;19.826;2022-09-09T07:15:31;27.30;99.90
11965;DHT22;6042;41.326;19.826;2022-09-09T07:18:02;27.40;99.90
11965;DHT22;6042;41.326;19.826;2022-09-09T07:20:31;27.50;99.90
11965;DHT22;6042;41.326;19.826;2022-09-09T07:23:00;27.50;99.90
11965;DHT22;6042;41.326;19.826;2022-09-09T07:25:28;27.70;99.90
11965;DHT22;6042;41.326;19.826;2022-09-09T07:27:57;27.80;99.90
11965;DHT22;6042;41.326;19.826;2022-09-09T07:30:26;27.80;99.90
11965;DHT22;6042;41.326;19.826;2022-09-09T07:32:57;27.80;99.90
11965;DHT22;6042;41.326;19.826;2022-09-09T07:35:28;27.80;99.90
11965;DHT22;6042;41.326;19.826;2022-09-09T07:37:57;27.80;99.90
11965;DHT22;6042;41.326;19.826;2022-09-09T07:40:26;27.90;99.90
11965;DHT22;6042;41.326;19.826;2022-09-09T07:42:54;28.00;99.90
11965;DHT22;6042;41.326;19.826;2022-09-09T07:45:23;27.80;99.90
11965;DHT22;6042;41.326;19.826;2022-09-09T07:47:51;27.70;99.90
11965;DHT22;6042;41.326;19.826;2022-09-09T07:50:20;27.70;99.90
11965;DHT22;6042;41.326;19.826;2022-09-09T07:52:51;27.90;99.90
11965;DHT22;6042;41.326;19.826;2022-09-09T07:55:20;27.80;99.90
11965;DHT22;6042;41.326;19.826;2022-09-09T07:57:52;27.70;99.90
11965;DHT22;6042;41.326;19.826;2022-09-09T08:00:20;27.70;99.90
11965;DHT22;6042;41.326;19.826;2022-09-09T08:02:54;27.70;99.90
11965;DHT22;6042;41.326;19.826;2022-09-09T08:05:23;27.70;99.90
11965;DHT22;6042;41.326;19.826;2022-09-09T08:07:53;27.80;99.90
11965;DHT22;6042;41.326;19.826;2022-09-09T08:10:22;28.00;99.90
11965;DHT22;6042;41.326;19.826;2022-09-09T08:12:53;28.10;99.90
11965;DHT22;6042;41.326;19.826;2022-09-09T08:15:42;28.30;99.90
11965;DHT22;6042;41.326;19.826;2022-09-09T08:18:13;28.60;99.90
11965;DHT22;6042;41.326;19.826;2022-09-09T08:20:43;28.70;99.80
11965;DHT22;6042;41.326;19.826;2022-09-09T08:23:14;28.80;99.40
11965;DHT22;6042;41.326;19.826;2022-09-09T08:25:43;28.90;99.00
11965;DHT22;6042;41.326;19.826;2022-09-09T08:28:13;29.00;99.10
11965;DHT22;6042;41.326;19.826;2022-09-09T08:30:42;28.90;98.50
11965;DHT22;6042;41.326;19.826;2022-09-09T08:33:10;28.80;97.80
11965;DHT22;6042;41.326;19.826;2022-09-09T08:35:50;28.90;97.50
11965;DHT22;6042;41.326;19.826;2022-09-09T08:38:20;29.00;97.20
11965;DHT22;6042;41.326;19.826;2022-09-09T08:40:50;29.10;97.00
11965;DHT22;6042;41.326;19.826;2022-09-09T08:43:23;29.20;96.80
11965;DHT22;6042;41.326;19.826;2022-09-09T08:45:58;29.30;97.00
11965;DHT22;6042;41.326;19.826;2022-09-09T08:48:43;29.40;96.60
11965;DHT22;6042;41.326;19.826;2022-09-09T08:51:13;29.40;96.80
11965;DHT22;6042;41.326;19.826;2022-09-09T08:53:49;29.20;97.20
11965;DHT22;6042;41.326;19.826;2022-09-09T08:56:27;29.20;97.10
11965;DHT22;6042;41.326;19.826;2022-09-09T08:59:00;29.30;97.20
11965;DHT22;6042;41.326;19.826;2022-09-09T09:01:58;29.30;96.50
11965;DHT22;6042;41.326;19.826;2022-09-09T09:04:49;29.50;96.60
11965;DHT22;6042;41.326;19.826;2022-09-09T09:07:28;29.30;96.80
11965;DHT22;6042;41.326;19.826;2022-09-09T09:10:12;29.20;96.10
11965;DHT22;6042;41.326;19.826;2022-09-09T09:13:04;29.30;95.60
11965;DHT22;6042;41.326;19.826;2022-09-09T09:15:37;29.30;95.30
11965;DHT22;6042;41.326;19.826;2022-09-09T09:18:12;29.30;95.20
11965;DHT22;6042;41.326;19.826;2022-09-09T09:20:47;29.30;95.20
11965;DHT22;6042;41.326;19.826;2022-09-09T09:23:22;29.20;95.10
11965;DHT22;6042;41.326;19.826;2022-09-09T09:26:00;28.90;95.10
11965;DHT22;6042;41.326;19.826;2022-09-09T09:28:31;28.70;95.50
11965;DHT22;6042;41.326;19.826;2022-09-09T09:31:12;28.50;95.90
11965;DHT22;6042;41.326;19.826;2022-09-09T09:33:48;28.40;97.10
11965;DHT22;6042;41.326;19.826;2022-09-09T09:36:19;28.30;97.70
11965;DHT22;6042;41.326;19.826;2022-09-09T09:38:54;28.10;98.90
11965;DHT22;6042;41.326;19.826;2022-09-09T09:41:47;27.90;99.50
11965;DHT22;6042;41.326;19.826;2022-09-09T09:44:25;27.70;99.90
11965;DHT22;6042;41.326;19.826;2022-09-09T09:47:06;27.70;99.90
11965;DHT22;6042;41.326;19.826;2022-09-09T09:49:36;27.60;99.90
11965;DHT22;6042;41.326;19.826;2022-09-09T09:52:06;27.70;99.90
11965;DHT22;6042;41.326;19.826;2022-09-09T09:54:38;27.50;99.90
11965;DHT22;6042;41.326;19.826;2022-09-09T09:57:12;27.50;99.90
11965;DHT22;6042;41.326;19.826;2022-09-09T09:59:43;27.40;99.90
11965;DHT22;6042;41.326;19.826;2022-09-09T10:02:24;27.50;99.90
11965;DHT22;6042;41.326;19.826;2022-09-09T10:05:05;27.10;99.90
11965;DHT22;6042;41.326;19.826;2022-09-09T10:07:35;26.70;99.90
11965;DHT22;6042;41.326;19.826;2022-09-09T10:10:08;26.50;99.90
11965;DHT22;6042;41.326;19.826;2022-09-09T10:12:46;26.30;99.90
11965;DHT22;6042;41.326;19.826;2022-09-09T10:15:32;26.00;99.90
11965;DHT22;6042;41.326;19.826;2022-09-09T10:18:14;25.80;99.90
11965;DHT22;6042;41.326;19.826;2022-09-09T10:20:50;25.70;99.90
11965;DHT22;6042;41.326;19.826;2022-09-09T10:23:41;25.70;99.90
11965;DHT22;6042;41.326;19.826;2022-09-09T10:26:26;25.80;99.90
11965;DHT22;6042;41.326;19.826;2022-09-09T10:29:15;25.90;99.90
11965;DHT22;6042;41.326;19.826;2022-09-09T10:31:53;25.90;99.90
11965;DHT22;6042;41.326;19.826;2022-09-09T10:34:43;25.90;99.90
11965;DHT22;6042;41.326;19.826;2022-09-09T10:37:23;26.00;99.90
11965;DHT22;6042;41.326;19.826;2022-09-09T10:40:05;25.90;99.90
11965;DHT22;6042;41.326;19.826;2022-09-09T10:42:37;26.10;99.90
11965;DHT22;6042;41.326;19.826;2022-09-09T10:45:17;26.40;99.90
11965;DHT22;6042;41.326;19.826;2022-09-09T10:48:05;26.50;99.90
11965;DHT22;6042;41.326;19.826;2022-09-09T10:50:53;26.50;99.90
11965;DHT22;6042;41.326;19.826;2022-09-09T10:53:37;26.30;99.90
11965;DHT22;6042;41.326;19.826;2022-09-09T10:56:09;26.20;99.90
11965;DHT22;6042;41.326;19.826;2022-09-09T10:58:44;26.20;99.90
11965;DHT22;6042;41.326;19.826;2022-09-09T11:01:20;26.40;99.90
11965;DHT22;6042;41.326;19.826;2022-09-09T11:03:55;26.40;99.90
11965;DHT22;6042;41.326;19.826;2022-09-09T11:06:31;25.50;99.90
11965;DHT22;6042;41.326;19.826;2022-09-09T11:09:03;24.40;99.90
11965;DHT22;6042;41.326;19.826;2022-09-09T11:11:41;23.90;99.90
11965;DHT22;6042;41.326;19.826;2022-09-09T11:14:17;23.60;99.90
11965;DHT22;6042;41.326;19.826;2022-09-09T11:16:51;23.60;99.90
11965;DHT22;6042;41.326;19.826;2022-09-09T11:19:26;23.60;99.90
11965;DHT22;6042;41.326;19.826;2022-09-09T11:21:58;23.60;99.90
11965;DHT22;6042;41.326;19.826;2022-09-09T11:24:31;23.70;99.90
11965;DHT22;6042;41.326;19.826;2022-09-09T11:27:10;23.80;99.90
11965;DHT22;6042;41.326;19.826;2022-09-09T11:30:15;24.10;99.90
11965;DHT22;6042;41.326;19.826;2022-09-09T11:33:38;24.50;99.90
11965;DHT22;6042;41.326;19.826;2022-09-09T11:36:31;24.70;99.90
11965;DHT22;6042;41.326;19.826;2022-09-09T11:39:26;24.80;99.90
11965;DHT22;6042;41.326;19.826;2022-09-09T11:42:06;24.80;99.90
11965;DHT22;6042;41.326;19.826;2022-09-09T11:44:35;24.90;99.90
11965;DHT22;6042;41.326;19.826;2022-09-09T11:47:20;25.20;99.90
11965;DHT22;6042;41.326;19.826;2022-09-09T11:49:52;25.50;99.90
11965;DHT22;6042;41.326;19.826;2022-09-09T11:52:23;25.60;99.90
11965;DHT22;6042;41.326;19.826;2022-09-09T11:54:55;25.50;99.90
11965;DHT22;6042;41.326;19.826;2022-09-09T11:57:27;25.70;99.90
11965;DHT22;6042;41.326;19.826;2022-09-09T11:59:58;26.10;99.90
11965;DHT22;6042;41.326;19.826;2022-09-09T12:02:52;26.20;99.90
11965;DHT22;6042;41.326;19.826;2022-09-09T12:05:42;26.10;99.90
11965;DHT22;6042;41.326;19.826;2022-09-09T12:08:26;26.30;99.90
11965;DHT22;6042;41.326;19.826;2022-09-09T12:10:58;26.40;99.90
11965;DHT22;6042;41.326;19.826;2022-09-09T12:13:29;26.60;99.90
11965;DHT22;6042;41.326;19.826;2022-09-09T12:15:59;26.80;99.90
11965;DHT22;6042;41.326;19.826;2022-09-09T12:18:33;27.00;99.90
11965;DHT22;6042;41.326;19.826;2022-09-09T12:21:21;27.00;99.90
11965;DHT22;6042;41.326;19.826;2022-09-09T12:23:55;26.80;99.90
11965;DHT22;6042;41.326;19.826;2022-09-09T12:26:31;26.90;99.90
11965;DHT22;6042;41.326;19.826;2022-09-09T12:29:16;26.80;99.90
11965;DHT22;6042;41.326;19.826;2022-09-09T12:31:53;26.80;99.90
11965;DHT22;6042;41.326;19.826;2022-09-09T12:34:32;26.70;99.90
11965;DHT22;6042;41.326;19.826;2022-09-09T12:37:06;26.60;99.90
11965;DHT22;6042;41.326;19.826;2022-09-09T12:39:40;26.40;99.90
11965;DHT22;6042;41.326;19.826;2022-09-09T12:42:17;26.30;99.90
11965;DHT22;6042;41.326;19.826;2022-09-09T12:44:56;25.70;99.90
11965;DHT22;6042;41.326;19.826;2022-09-09T12:47:32;24.90;99.90
11965;DHT22;6042;41.326;19.826;2022-09-09T12:50:03;24.70;99.90
11965;DHT22;6042;41.326;19.826;2022-09-09T12:52:35;25.00;99.90
11965;DHT22;6042;41.326;19.826;2022-09-09T12:55:06;25.10;99.90
11965;DHT22;6042;41.326;19.826;2022-09-09T12:57:38;25.10;99.90
11965;DHT22;6042;41.326;19.826;2022-09-09T13:00:14;25.20;99.90
11965;DHT22;6042;41.326;19.826;2022-09-09T13:02:48;25.70;99.90
11965;DHT22;6042;41.326;19.826;2022-09-09T13:05:21;26.30;99.90
11965;DHT22;6042;41.326;19.826;2022-09-09T13:07:51;26.50;99.90
11965;DHT22;6042;41.326;19.826;2022-09-09T13:10:24;26.60;99.90
11965;DHT22;6042;41.326;19.826;2022-09-09T13:13:14;27.00;99.90
11965;DHT22;6042;41.326;19.826;2022-09-09T13:15:50;27.40;99.90
11965;DHT22;6042;41.326;19.826;2022-09-09T13:18:22;27.70;99.90
11965;DHT22;6042;41.326;19.826;2022-09-09T13:20:52;27.90;99.90
11965;DHT22;6042;41.326;19.826;2022-09-09T13:23:24;28.20;99.90
11965;DHT22;6042;41.326;19.826;2022-09-09T13:25:56;28.30;99.90
11965;DHT22;6042;41.326;19.826;2022-09-09T13:28:28;28.60;99.90
11965;DHT22;6042;41.326;19.826;2022-09-09T13:31:01;28.80;99.90
11965;DHT22;6042;41.326;19.826;2022-09-09T13:33:34;29.00;99.90
11965;DHT22;6042;41.326;19.826;2022-09-09T13:36:06;29.30;99.90
11965;DHT22;6042;41.326;19.826;2022-09-09T13:38:38;29.60;99.90
11965;DHT22;6042;41.326;19.826;2022-09-09T13:41:10;29.90;99.90
11965;DHT22;6042;41.326;19.826;2022-09-09T13:43:43;30.20;99.90
11965;DHT22;6042;41.326;19.826;2022-09-09T13:46:28;30.40;99.90
11965;DHT22;6042;41.326;19.826;2022-09-09T13:48:59;30.70;99.90
11965;DHT22;6042;41.326;19.826;2022-09-09T13:51:35;30.90;99.90
11965;DHT22;6042;41.326;19.826;2022-09-09T13:54:06;30.50;99.90
11965;DHT22;6042;41.326;19.826;2022-09-09T13:56:38;30.00;99.90
11965;DHT22;6042;41.326;19.826;2022-09-09T13:59:11;29.80;99.90
11965;DHT22;6042;41.326;19.826;2022-09-09T14:01:40;29.50;99.90
11965;DHT22;6042;41.326;19.826;2022-09-09T14:04:09;29.20;99.90
11965;DHT22;6042;41.326;19.826;2022-09-09T14:06:38;29.00;99.90
11965;DHT22;6042;41.326;19.826;2022-09-09T14:09:11;29.00;99.90
11965;DHT22;6042;41.326;19.826;2022-09-09T14:11:40;29.00;99.90
11965;DHT22;6042;41.326;19.826;2022-09-09T14:14:09;29.00;99.90
11965;DHT22;6042;41.326;19.826;2022-09-09T14:16:38;29.00;99.90
11965;DHT22;6042;41.326;19.826;2022-09-09T14:19:08;29.00;99.90
11965;DHT22;6042;41.326;19.826;2022-09-09T14:21:36;28.90;99.90
11965;DHT22;6042;41.326;19.826;2022-09-09T14:24:05;28.80;99.90
11965;DHT22;6042;41.326;19.826;2022-09-09T14:26:35;28.70;99.90
11965;DHT22;6042;41.326;19.826;2022-09-09T14:29:04;28.70;99.90
11965;DHT22;6042;41.326;19.826;2022-09-09T14:31:32;28.70;99.90
11965;DHT22;6042;41.326;19.826;2022-09-09T14:34:01;28.60;99.90
11965;DHT22;6042;41.326;19.826;2022-09-09T14:36:29;28.70;99.90
11965;DHT22;6042;41.326;19.826;2022-09-09T14:38:58;28.70;99.90
11965;DHT22;6042;41.326;19.826;2022-09-09T14:41:27;28.70;99.90
11965;DHT22;6042;41.326;19.826;2022-09-09T14:43:57;28.60;99.90
11965;DHT22;6042;41.326;19.826;2022-09-09T14:46:26;28.50;99.90
11965;DHT22;6042;41.326;19.826;2022-09-09T14:48:55;28.50;99.90
11965;DHT22;6042;41.326;19.826;2022-09-09T14:51:25;28.50;99.90
11965;DHT22;6042;41.326;19.826;2022-09-09T14:53:56;28.50;99.90
11965;DHT22;6042;41.326;19.826;2022-09-09T14:56:28;28.50;99.90
11965;DHT22;6042;41.326;19.826;2022-09-09T14:58:58;28.50;99.90
11965;DHT22;6042;41.326;19.826;2022-09-09T15:01:29;28.60;99.90
11965;DHT22;6042;41.326;19.826;2022-09-09T15:04:00;28.50;99.90
11965;DHT22;6042;41.326;19.826;2022-09-09T15:06:31;28.40;99.90
11965;DHT22;6042;41.326;19.826;2022-09-09T15:09:00;28.40;99.90
11965;DHT22;6042;41.326;19.826;2022-09-09T15:11:31;28.50;99.90
11965;DHT22;6042;41.326;19.826;2022-09-09T15:14:06;28.60;99.90
11965;DHT22;6042;41.326;19.826;2022-09-09T15:16:36;28.70;99.90
11965;DHT22;6042;41.326;19.826;2022-09-09T15:19:05;28.80;99.90
11965;DHT22;6042;41.326;19.826;2022-09-09T15:21:35;28.80;99.90
11965;DHT22;6042;41.326;19.826;2022-09-09T15:24:04;28.80;99.90
11965;DHT22;6042;41.326;19.826;2022-09-09T15:26:35;28.80;99.90
11965;DHT22;6042;41.326;19.826;2022-09-09T15:29:07;28.80;99.90
11965;DHT22;6042;41.326;19.826;2022-09-09T15:31:37;28.80;99.90
11965;DHT22;6042;41.326;19.826;2022-09-09T15:34:07;28.80;99.90
11965;DHT22;6042;41.326;19.826;2022-09-09T15:36:37;28.90;99.90
11965;DHT22;6042;41.326;19.826;2022-09-09T15:39:07;28.90;99.90
11965;DHT22;6042;41.326;19.826;2022-09-09T15:41:39;29.00;99.90
11965;DHT22;6042;41.326;19.826;2022-09-09T15:44:10;29.00;99.90
11965;DHT22;6042;41.326;19.826;2022-09-09T15:46:40;29.00;99.90
11965;DHT22;6042;41.326;19.826;2022-09-09T15:49:14;29.10;99.90
11965;DHT22;6042;41.326;19.826;2022-09-09T15:51:46;29.10;99.90
11965;DHT22;6042;41.326;19.826;2022-09-09T15:54:16;29.10;99.90
11965;DHT22;6042;41.326;19.826;2022-09-09T15:56:46;29.10;99.90
11965;DHT22;6042;41.326;19.826;2022-09-09T15:59:17;29.20;99.90
11965;DHT22;6042;41.326;19.826;2022-09-09T16:01:45;29.20;99.90
11965;DHT22;6042;41.326;19.826;2022-09-09T16:04:14;29.10;99.90
11965;DHT22;6042;41.326;19.826;2022-09-09T16:06:51;29.20;99.90
11965;DHT22;6042;41.326;19.826;2022-09-09T16:09:19;29.10;99.90
11965;DHT22;6042;41.326;19.826;2022-09-09T16:11:52;29.00;99.90
11965;DHT22;6042;41.326;19.826;2022-09-09T16:14:22;29.10;99.90